createdAt,value
2017-11-19T00:02:28.250Z,6.97
2017-11-19T00:04:56.533Z,7.04
2017-11-19T00:07:24.782Z,7.06
2017-11-19T00:09:53.075Z,6.98
2017-11-19T00:12:21.365Z,7.00
2017-11-19T00:14:49.608Z,6.98
2017-11-19T00:17:17.892Z,6.95
2017-11-19T00:19:46.149Z,7.02
2017-11-19T00:22:14.464Z,7.10
2017-11-19T00:24:42.732Z,7.15
2017-11-19T00:27:11.029Z,7.15
2017-11-19T00:29:39.336Z,7.16
2017-11-19T00:32:07.600Z,7.21
2017-11-19T00:34:35.880Z,7.20
2017-11-19T00:37:04.165Z,7.17
2017-11-19T00:39:32.441Z,7.19
2017-11-19T00:42:00.690Z,7.09
2017-11-19T00:44:28.981Z,7.04
2017-11-19T00:46:57.246Z,7.14
2017-11-19T00:49:25.516Z,7.16
2017-11-19T00:51:53.769Z,7.16
2017-11-19T00:54:22.062Z,7.18
2017-11-19T00:56:50.332Z,7.20
2017-11-19T00:59:18.603Z,7.31
2017-11-19T01:01:46.957Z,7.12
2017-11-19T01:04:16.009Z,7.17
2017-11-19T01:06:44.310Z,7.16
2017-11-19T01:09:12.585Z,7.13
2017-11-19T01:11:40.841Z,7.17
2017-11-19T01:14:09.076Z,7.16
2017-11-19T01:16:37.367Z,7.09
2017-11-19T01:19:05.667Z,7.05
2017-11-19T01:21:33.944Z,7.06
2017-11-19T01:24:02.254Z,7.03
2017-11-19T01:26:30.546Z,7.06
2017-11-19T01:28:58.841Z,7.12
2017-11-19T01:31:27.112Z,7.02
2017-11-19T01:33:55.394Z,7.02
2017-11-19T01:36:23.654Z,7.05
2017-11-19T01:38:51.941Z,7.17
2017-11-19T01:41:20.198Z,7.18
2017-11-19T01:43:48.473Z,7.12
2017-11-19T01:46:16.745Z,7.02
2017-11-19T01:48:45.056Z,7.14
2017-11-19T01:51:13.323Z,7.01
2017-11-19T01:53:41.654Z,7.14
2017-11-19T01:56:09.921Z,7.22
2017-11-19T01:58:38.363Z,7.25
2017-11-19T02:01:06.648Z,7.28
2017-11-19T02:03:34.915Z,7.23
2017-11-19T02:06:03.287Z,7.20
2017-11-19T02:08:31.509Z,7.27
2017-11-19T02:10:59.922Z,7.23
2017-11-19T02:13:28.189Z,7.37
2017-11-19T02:15:56.472Z,7.28
2017-11-19T02:18:24.733Z,7.30
2017-11-19T02:20:53.051Z,7.29
2017-11-19T02:23:21.316Z,7.00
2017-11-19T02:25:49.606Z,7.10
2017-11-19T02:28:17.868Z,7.20
2017-11-19T02:30:46.145Z,7.16
2017-11-19T02:33:14.430Z,7.24
2017-11-19T02:35:42.678Z,7.24
2017-11-19T02:38:10.987Z,7.23
2017-11-19T02:40:39.252Z,7.25
2017-11-19T02:43:07.526Z,7.21
2017-11-19T02:45:35.796Z,7.16
2017-11-19T02:48:04.188Z,7.11
2017-11-19T02:50:32.436Z,7.17
2017-11-19T02:53:00.731Z,7.19
2017-11-19T02:55:29.014Z,7.16
2017-11-19T02:57:57.607Z,7.31
2017-11-19T03:00:26.744Z,7.38
2017-11-19T03:02:55.073Z,7.28
2017-11-19T03:05:23.353Z,7.26
2017-11-19T03:07:51.678Z,7.23
2017-11-19T03:10:20.059Z,7.25
2017-11-19T03:12:48.309Z,7.27
2017-11-19T03:15:16.671Z,7.33
2017-11-19T03:17:44.897Z,7.27
2017-11-19T03:20:13.216Z,7.24
2017-11-19T03:22:41.460Z,7.30
2017-11-19T03:25:09.767Z,7.26
2017-11-19T03:27:38.034Z,7.27
2017-11-19T03:30:06.468Z,7.22
2017-11-19T03:32:34.709Z,7.38
2017-11-19T03:35:04.606Z,7.44
2017-11-19T03:37:32.917Z,7.40
2017-11-19T03:40:01.193Z,7.46
2017-11-19T03:42:29.501Z,7.39
2017-11-19T03:44:57.758Z,7.36
2017-11-19T03:47:26.043Z,7.40
2017-11-19T03:49:54.296Z,7.42
2017-11-19T03:52:22.572Z,7.41
2017-11-19T03:54:50.841Z,7.52
2017-11-19T03:57:19.141Z,7.58
2017-11-19T03:59:47.397Z,7.62
2017-11-19T04:02:15.673Z,7.58
2017-11-19T04:04:43.926Z,7.61
2017-11-19T04:07:12.204Z,7.61
2017-11-19T04:09:40.492Z,7.58
2017-11-19T04:12:08.760Z,7.65
2017-11-19T04:14:37.034Z,7.62
2017-11-19T04:17:05.293Z,7.72
2017-11-19T04:19:33.593Z,7.76
2017-11-19T04:22:01.846Z,7.74
2017-11-19T04:24:30.168Z,7.64
2017-11-19T04:26:58.416Z,7.75
2017-11-19T04:29:26.701Z,7.62
2017-11-19T04:31:54.968Z,7.40
2017-11-19T04:34:23.334Z,7.26
2017-11-19T04:36:51.609Z,7.16
2017-11-19T04:39:19.906Z,6.59
2017-11-19T04:41:48.169Z,6.75
2017-11-19T04:44:16.488Z,6.77
2017-11-19T04:46:44.757Z,6.93
2017-11-19T04:49:13.035Z,7.03
2017-11-19T04:51:41.302Z,7.19
2017-11-19T04:54:09.557Z,7.20
2017-11-19T04:56:37.885Z,7.17
2017-11-19T04:59:06.133Z,7.26
2017-11-19T05:01:34.413Z,7.25
2017-11-19T05:04:02.665Z,7.29
2017-11-19T05:06:30.942Z,7.28
2017-11-19T05:08:59.206Z,7.32
2017-11-19T05:11:27.506Z,7.31
2017-11-19T05:13:55.775Z,7.38
2017-11-19T05:16:24.049Z,7.26
2017-11-19T05:18:52.330Z,7.14
2017-11-19T05:21:21.610Z,7.05
2017-11-19T05:23:50.693Z,7.01
2017-11-19T05:26:19.025Z,6.95
2017-11-19T05:28:47.290Z,7.01
2017-11-19T05:31:15.551Z,6.97
2017-11-19T05:33:43.833Z,7.11
2017-11-19T05:36:12.086Z,7.14
2017-11-19T05:38:40.370Z,7.32
2017-11-19T05:41:08.634Z,7.53
2017-11-19T05:43:36.917Z,7.65
2017-11-19T05:46:05.561Z,7.75
2017-11-19T05:48:34.587Z,7.78
2017-11-19T05:51:02.874Z,7.54
2017-11-19T05:53:31.116Z,7.61
2017-11-19T05:55:59.393Z,7.61
2017-11-19T05:58:27.651Z,7.58
2017-11-19T06:00:55.929Z,7.25
2017-11-19T06:03:24.176Z,7.09
2017-11-19T06:05:52.475Z,6.85
2017-11-19T06:08:20.710Z,6.59
2017-11-19T06:10:48.975Z,6.53
2017-11-19T06:13:17.985Z,6.53
2017-11-19T06:15:46.244Z,6.40
2017-11-19T06:18:14.530Z,6.54
2017-11-19T06:20:43.217Z,6.74
2017-11-19T06:23:11.492Z,6.79
2017-11-19T06:25:39.755Z,6.84
2017-11-19T06:28:08.040Z,6.80
2017-11-19T06:30:36.281Z,6.83
2017-11-19T06:33:04.965Z,6.85
2017-11-19T06:35:33.267Z,6.74
2017-11-19T06:38:01.513Z,6.85
2017-11-19T06:40:29.764Z,6.92
2017-11-19T06:42:58.048Z,7.11
2017-11-19T06:45:26.293Z,7.23
2017-11-19T06:47:54.566Z,7.23
2017-11-19T06:50:22.820Z,7.04
2017-11-19T06:52:51.105Z,6.97
2017-11-19T06:55:19.374Z,6.87
2017-11-19T06:57:47.784Z,6.80
2017-11-19T07:00:16.060Z,6.76
2017-11-19T07:02:44.333Z,6.85
2017-11-19T07:05:12.623Z,7.02
2017-11-19T07:07:40.881Z,7.25
2017-11-19T07:10:09.157Z,7.27
2017-11-19T07:12:37.449Z,7.34
2017-11-19T07:15:05.747Z,7.42
2017-11-19T07:17:33.995Z,7.44
2017-11-19T07:20:02.270Z,7.38
2017-11-19T07:22:30.517Z,7.37
2017-11-19T07:24:58.802Z,7.39
2017-11-19T07:27:27.064Z,7.43
2017-11-19T07:29:55.427Z,7.38
2017-11-19T07:32:23.677Z,7.37
2017-11-19T07:34:51.971Z,7.37
2017-11-19T07:37:20.281Z,7.27
2017-11-19T07:39:48.557Z,7.20
2017-11-19T07:42:16.825Z,7.29
2017-11-19T07:44:45.078Z,7.40
2017-11-19T07:47:13.377Z,7.45
2017-11-19T07:49:42.102Z,7.45
2017-11-19T07:52:10.377Z,7.51
2017-11-19T07:54:38.691Z,7.42
2017-11-19T07:57:06.991Z,7.44
2017-11-19T07:59:35.267Z,7.63
2017-11-19T08:02:04.256Z,7.70
2017-11-19T08:04:32.541Z,7.72
2017-11-19T08:07:00.798Z,7.92
2017-11-19T08:09:29.089Z,7.97
2017-11-19T08:11:57.362Z,7.96
2017-11-19T08:14:25.648Z,7.94
2017-11-19T08:16:53.894Z,7.87
2017-11-19T08:19:22.188Z,7.80
2017-11-19T08:21:50.456Z,7.80
2017-11-19T08:24:18.749Z,7.78
2017-11-19T08:26:46.989Z,7.75
2017-11-19T08:29:15.326Z,7.63
2017-11-19T08:31:43.581Z,7.71
2017-11-19T08:34:11.870Z,7.78
2017-11-19T08:36:40.104Z,7.83
2017-11-19T08:39:08.379Z,7.78
2017-11-19T08:41:36.644Z,7.71
2017-11-19T08:44:04.929Z,7.50
2017-11-19T08:46:33.230Z,7.59
2017-11-19T08:49:01.493Z,7.61
2017-11-19T08:51:29.805Z,7.65
2017-11-19T08:53:58.116Z,7.64
2017-11-19T08:56:26.413Z,7.61
2017-11-19T08:58:54.690Z,7.61
2017-11-19T09:01:22.961Z,7.58
2017-11-19T09:03:51.207Z,7.62
2017-11-19T09:06:19.508Z,7.68
2017-11-19T09:08:47.765Z,7.75
2017-11-19T09:11:16.021Z,7.80
2017-11-19T09:13:44.302Z,7.78
2017-11-19T09:16:12.546Z,7.79
2017-11-19T09:18:40.830Z,7.87
2017-11-19T09:21:09.109Z,7.77
2017-11-19T09:23:37.412Z,7.76
2017-11-19T09:26:05.664Z,7.85
2017-11-19T09:28:33.947Z,7.97
2017-11-19T09:31:02.291Z,8.11
2017-11-19T09:33:30.582Z,8.24
2017-11-19T09:35:58.863Z,8.36
2017-11-19T09:38:27.115Z,8.33
2017-11-19T09:40:55.394Z,8.39
2017-11-19T09:43:23.945Z,8.47
2017-11-19T09:45:52.235Z,8.43
2017-11-19T09:48:20.501Z,8.71
2017-11-19T09:50:48.804Z,8.83
2017-11-19T09:53:17.386Z,8.89
2017-11-19T09:55:45.693Z,8.90
2017-11-19T09:58:14.006Z,8.72
2017-11-19T10:00:42.262Z,8.72
2017-11-19T10:03:10.522Z,8.50
2017-11-19T10:05:38.797Z,8.45
2017-11-19T10:08:07.090Z,8.41
2017-11-19T10:10:35.390Z,8.45
2017-11-19T10:13:04.604Z,8.44
2017-11-19T10:15:34.493Z,8.43
2017-11-19T10:18:02.796Z,8.44
2017-11-19T10:20:31.054Z,8.40
2017-11-19T10:22:59.418Z,8.46
2017-11-19T10:25:27.649Z,8.43
2017-11-19T10:27:57.262Z,8.50
2017-11-19T10:30:25.525Z,8.35
2017-11-19T10:32:53.853Z,8.53
2017-11-19T10:35:22.097Z,8.52
2017-11-19T10:37:50.392Z,8.67
2017-11-19T10:40:18.661Z,8.83
2017-11-19T10:42:46.925Z,8.77
2017-11-19T10:45:15.217Z,8.77
2017-11-19T10:47:43.471Z,8.88
2017-11-19T10:50:11.758Z,8.50
2017-11-19T10:52:40.012Z,8.49
2017-11-19T10:55:08.301Z,8.57
2017-11-19T10:57:36.570Z,8.54
2017-11-19T11:00:05.033Z,8.73
2017-11-19T11:02:33.316Z,8.92
2017-11-19T11:05:02.326Z,9.01
2017-11-19T11:07:30.616Z,9.06
2017-11-19T11:09:58.859Z,9.18
2017-11-19T11:12:27.141Z,9.28
2017-11-19T11:14:55.394Z,9.22
2017-11-19T11:17:24.541Z,9.25
2017-11-19T11:19:53.736Z,9.29
2017-11-19T11:22:22.021Z,9.29
2017-11-19T11:24:50.430Z,9.23
2017-11-19T11:27:18.702Z,9.05
2017-11-19T11:29:46.994Z,9.09
2017-11-19T11:32:15.308Z,9.12
2017-11-19T11:34:43.552Z,9.20
2017-11-19T11:37:11.800Z,9.01
2017-11-19T11:39:40.090Z,9.00
2017-11-19T11:42:08.502Z,9.20
2017-11-19T11:44:36.759Z,9.15
2017-11-19T11:47:05.047Z,9.27
2017-11-19T11:49:33.501Z,9.29
2017-11-19T11:52:01.763Z,9.40
2017-11-19T11:54:30.066Z,9.50
2017-11-19T11:56:58.329Z,9.59
2017-11-19T11:59:26.577Z,9.51
2017-11-19T12:01:54.908Z,9.29
2017-11-19T12:04:23.172Z,9.20
2017-11-19T12:06:51.434Z,9.18
2017-11-19T12:09:19.681Z,9.24
2017-11-19T12:11:48.134Z,9.24
2017-11-19T12:14:16.469Z,9.18
2017-11-19T12:16:44.796Z,9.21
2017-11-19T12:19:13.062Z,9.34
2017-11-19T12:21:41.314Z,9.44
2017-11-19T12:24:09.613Z,9.36
2017-11-19T12:26:37.857Z,9.13
2017-11-19T12:29:06.196Z,8.88
2017-11-19T12:31:34.437Z,8.91
2017-11-19T12:34:02.718Z,8.79
2017-11-19T12:36:31.010Z,8.89
2017-11-19T12:38:59.292Z,8.81
2017-11-19T12:41:27.626Z,8.89
2017-11-19T12:43:55.889Z,8.93
2017-11-19T12:46:24.170Z,8.90
2017-11-19T12:48:52.449Z,8.88
2017-11-19T12:51:20.819Z,8.90
2017-11-19T12:53:49.138Z,8.92
2017-11-19T12:56:17.429Z,8.76
2017-11-19T12:58:45.684Z,8.80
2017-11-19T13:01:13.970Z,8.76
2017-11-19T13:03:42.802Z,8.67
2017-11-19T13:06:11.079Z,8.65
2017-11-19T13:08:39.342Z,8.60
2017-11-19T13:11:07.662Z,8.61
2017-11-19T13:13:35.950Z,8.67
2017-11-19T13:16:04.225Z,8.71
2017-11-19T13:18:32.547Z,8.59
2017-11-19T13:21:00.816Z,8.69
2017-11-19T13:23:29.084Z,8.93
2017-11-19T13:25:57.336Z,9.13
2017-11-19T13:28:25.625Z,9.32
2017-11-19T13:30:53.996Z,9.64
2017-11-19T13:33:22.281Z,9.75
2017-11-19T13:35:50.565Z,9.58
2017-11-19T13:38:18.805Z,9.37
2017-11-19T13:40:47.102Z,9.29
2017-11-19T13:43:15.399Z,9.42
2017-11-19T13:45:43.721Z,9.46
2017-11-19T13:48:11.980Z,9.42
2017-11-19T13:50:40.305Z,9.26
2017-11-19T13:53:08.574Z,9.30
2017-11-19T13:55:36.829Z,9.16
2017-11-19T13:58:05.709Z,9.19
2017-11-19T14:00:33.980Z,9.20
2017-11-19T14:03:02.354Z,9.13
2017-11-19T14:05:30.609Z,8.96
2017-11-19T14:07:58.922Z,8.95
2017-11-19T14:10:30.182Z,8.90
2017-11-19T14:13:01.245Z,8.97
2017-11-19T14:15:29.493Z,8.88
2017-11-19T14:17:58.637Z,8.89
2017-11-19T14:20:26.920Z,8.78
2017-11-19T14:22:55.264Z,8.84
2017-11-19T14:25:23.512Z,8.89
2017-11-19T14:27:51.787Z,8.95
2017-11-19T14:30:20.142Z,8.97
2017-11-19T14:32:48.416Z,9.02
2017-11-19T14:35:16.764Z,9.03
2017-11-19T14:37:45.049Z,9.02
2017-11-19T14:40:13.340Z,8.90
2017-11-19T14:42:41.781Z,8.91
2017-11-19T14:45:10.122Z,8.80
2017-11-19T14:47:38.382Z,8.44
2017-11-19T14:50:06.675Z,8.66
2017-11-19T14:52:35.001Z,8.50
2017-11-19T14:55:03.370Z,8.41
2017-11-19T14:57:31.814Z,8.40
2017-11-19T15:00:00.148Z,8.33
2017-11-19T15:02:28.402Z,8.22
2017-11-19T15:04:56.677Z,8.13
2017-11-19T15:07:25.285Z,8.08
2017-11-19T15:09:53.556Z,8.03
2017-11-19T15:12:21.845Z,8.00
2017-11-19T15:14:50.344Z,7.94
2017-11-19T15:17:18.639Z,8.02
2017-11-19T15:19:46.892Z,8.02
2017-11-19T15:22:15.189Z,8.05
2017-11-19T15:24:43.454Z,8.09
2017-11-19T15:27:11.762Z,8.11
2017-11-19T15:29:40.033Z,8.18
2017-11-19T15:32:08.364Z,8.15
2017-11-19T15:34:36.620Z,8.13
2017-11-19T15:37:04.889Z,8.03
2017-11-19T15:39:33.181Z,7.92
2017-11-19T15:42:01.450Z,7.86
2017-11-19T15:44:29.733Z,8.00
2017-11-19T15:46:58.085Z,7.95
2017-11-19T15:49:26.370Z,7.98
2017-11-19T15:51:54.664Z,7.93
2017-11-19T15:54:22.974Z,7.93
2017-11-19T15:56:51.277Z,7.91
2017-11-19T15:59:19.586Z,7.88
2017-11-19T16:01:48.720Z,8.03
2017-11-19T16:04:16.975Z,8.05
2017-11-19T16:06:45.281Z,7.94
2017-11-19T16:09:13.611Z,7.87
2017-11-19T16:11:41.886Z,7.81
2017-11-19T16:14:10.205Z,7.77
2017-11-19T16:16:38.470Z,7.60
2017-11-19T16:19:06.801Z,7.69
2017-11-19T16:21:35.061Z,7.74
2017-11-19T16:26:30.711Z,7.77
2017-11-19T16:28:58.998Z,7.68
2017-11-19T16:31:27.321Z,7.73
2017-11-19T16:33:55.591Z,7.72
2017-11-19T16:36:23.902Z,7.69
2017-11-19T16:38:52.195Z,7.70
2017-11-19T16:41:20.476Z,7.69
2017-11-19T16:43:49.070Z,7.63
2017-11-19T16:46:17.389Z,7.61
2017-11-19T16:48:45.661Z,7.64
2017-11-19T16:51:14.509Z,7.62
2017-11-19T16:53:42.786Z,7.59
2017-11-19T16:56:11.069Z,7.59
2017-11-19T16:58:39.393Z,7.40
2017-11-19T17:01:07.631Z,7.50
2017-11-19T17:03:36.013Z,7.47
2017-11-19T17:06:04.964Z,7.54
2017-11-19T17:08:33.239Z,7.42
2017-11-19T17:11:02.546Z,7.38
2017-11-19T17:13:30.821Z,7.40
2017-11-19T17:15:59.097Z,7.48
2017-11-19T17:18:27.377Z,7.42
2017-11-19T17:20:55.683Z,7.45
2017-11-19T17:23:23.970Z,7.48
2017-11-19T17:25:52.286Z,7.50
2017-11-19T17:28:20.657Z,7.34
2017-11-19T17:30:48.937Z,7.39
2017-11-19T17:33:17.251Z,7.39
2017-11-19T17:35:51.097Z,7.44
2017-11-19T17:38:19.403Z,7.37
2017-11-19T17:40:47.674Z,7.39
2017-11-19T17:43:15.946Z,7.31
2017-11-19T17:45:44.233Z,7.35
2017-11-19T17:48:12.496Z,7.36
2017-11-19T17:50:40.882Z,7.41
2017-11-19T17:53:09.144Z,7.38
2017-11-19T17:55:37.418Z,7.47
2017-11-19T17:58:05.710Z,7.47
2017-11-19T18:00:34.001Z,7.58
2017-11-19T18:03:02.327Z,7.71
2017-11-19T18:05:30.593Z,7.70
2017-11-19T18:07:58.875Z,7.76
2017-11-19T18:10:27.357Z,7.80
2017-11-19T18:12:55.705Z,7.70
2017-11-19T18:15:23.944Z,7.64
2017-11-19T18:17:52.245Z,7.77
2017-11-19T18:20:20.566Z,7.82
2017-11-19T18:22:48.846Z,7.63
2017-11-19T18:25:17.113Z,7.55
2017-11-19T18:27:45.564Z,7.36
2017-11-19T18:30:13.850Z,7.33
2017-11-19T18:32:42.222Z,7.39
2017-11-19T18:35:10.512Z,7.56
2017-11-19T18:37:38.813Z,7.63
2017-11-19T18:40:07.120Z,7.54
2017-11-19T18:42:35.411Z,7.49
2017-11-19T18:45:03.663Z,7.49
2017-11-19T18:47:32.020Z,7.67
2017-11-19T18:50:00.324Z,7.90
2017-11-19T18:52:28.590Z,7.98
2017-11-19T18:54:56.913Z,7.95
2017-11-19T18:57:25.246Z,7.96
2017-11-19T18:59:53.563Z,7.72
2017-11-19T19:02:21.936Z,7.60
2017-11-19T19:04:50.244Z,7.51
2017-11-19T19:07:18.494Z,7.46
2017-11-19T19:09:46.817Z,7.38
2017-11-19T19:12:15.114Z,7.25
2017-11-19T19:14:43.396Z,7.25
2017-11-19T19:17:11.676Z,7.32
2017-11-19T19:19:39.990Z,7.29
2017-11-19T19:22:08.399Z,7.26
2017-11-19T19:24:36.624Z,7.28
2017-11-19T19:27:05.143Z,7.22
2017-11-19T19:29:33.454Z,7.38
2017-11-19T19:34:29.046Z,7.67
2017-11-19T19:36:57.387Z,7.71
2017-11-19T19:39:25.634Z,7.77
2017-11-19T19:41:53.911Z,7.75
2017-11-19T19:44:22.293Z,7.70
2017-11-19T19:46:51.401Z,7.71
2017-11-19T19:49:19.691Z,7.75
2017-11-19T19:51:48.000Z,7.82
2017-11-19T19:54:16.292Z,7.89
2017-11-19T19:56:44.596Z,7.87
2017-11-19T19:59:12.901Z,7.84
2017-11-19T20:01:41.184Z,7.84
2017-11-19T20:04:09.461Z,7.87
2017-11-19T20:06:37.751Z,7.92
2017-11-19T20:09:06.022Z,7.89
2017-11-19T20:11:34.356Z,7.80
2017-11-19T20:14:03.200Z,7.81
2017-11-19T20:16:31.792Z,7.75
2017-11-19T20:19:00.074Z,7.80
2017-11-19T20:21:28.340Z,7.76
2017-11-19T20:23:56.605Z,7.61
2017-11-19T20:26:25.090Z,7.65
2017-11-19T20:28:53.349Z,7.55
2017-11-19T20:31:21.625Z,7.64
2017-11-19T20:33:49.947Z,7.62
2017-11-19T20:36:18.220Z,7.56
2017-11-19T20:38:46.496Z,7.61
2017-11-19T20:41:14.745Z,7.67
2017-11-19T20:43:43.048Z,7.67
2017-11-19T20:46:11.308Z,7.74
2017-11-19T20:48:39.590Z,7.73
2017-11-19T20:51:07.843Z,7.71
2017-11-19T20:53:36.118Z,7.51
2017-11-19T20:56:04.453Z,7.35
2017-11-19T20:58:32.863Z,7.66
2017-11-19T21:01:01.138Z,7.61
2017-11-19T21:03:29.459Z,7.63
2017-11-19T21:05:57.694Z,7.77
2017-11-19T21:08:25.941Z,7.76
2017-11-19T21:10:54.239Z,7.81
2017-11-19T21:13:22.485Z,7.77
2017-11-19T21:15:50.773Z,7.66
2017-11-19T21:18:19.017Z,7.78
2017-11-19T21:20:47.357Z,7.85
2017-11-19T21:23:15.621Z,7.71
2017-11-19T21:25:43.896Z,7.65
2017-11-19T21:28:12.190Z,7.57
2017-11-19T21:30:40.461Z,7.71
2017-11-19T21:33:08.726Z,7.72
2017-11-19T21:35:36.999Z,7.72
2017-11-19T21:38:05.263Z,7.76
2017-11-19T21:40:33.561Z,7.73
2017-11-19T21:43:01.833Z,7.72
2017-11-19T21:45:30.133Z,7.62
2017-11-19T21:47:58.426Z,7.60
2017-11-19T21:50:26.730Z,7.58
2017-11-19T21:52:55.036Z,7.58
2017-11-19T21:55:23.337Z,7.53
2017-11-19T21:57:51.614Z,7.56
2017-11-19T22:00:19.908Z,7.56
2017-11-19T22:02:48.173Z,7.62
2017-11-19T22:05:16.517Z,7.66
2017-11-19T22:07:45.161Z,7.67
2017-11-19T22:10:13.489Z,7.47
2017-11-19T22:12:41.753Z,7.61
2017-11-19T22:15:10.032Z,7.56
2017-11-19T22:17:38.303Z,7.39
2017-11-19T22:20:06.577Z,7.34
2017-11-19T22:22:34.940Z,7.09
2017-11-19T22:25:03.209Z,6.95
2017-11-19T22:27:31.453Z,7.12
2017-11-19T22:29:59.741Z,7.10
2017-11-19T22:32:28.110Z,7.15
2017-11-19T22:34:56.341Z,7.15
2017-11-19T22:37:24.628Z,7.11
2017-11-19T22:39:52.899Z,7.01
2017-11-19T22:42:21.148Z,7.06
2017-11-19T22:44:49.515Z,7.15
2017-11-19T22:47:17.768Z,7.14
2017-11-19T22:49:46.036Z,7.21
2017-11-19T22:52:14.288Z,7.13
2017-11-19T22:54:42.565Z,7.14
2017-11-19T22:57:10.841Z,7.16
2017-11-19T22:59:39.132Z,7.26
2017-11-19T23:02:07.385Z,7.28
2017-11-19T23:04:35.655Z,7.25
2017-11-19T23:07:04.233Z,7.20
2017-11-19T23:09:32.521Z,7.31
2017-11-19T23:12:00.799Z,7.41
2017-11-19T23:14:29.085Z,7.47
2017-11-19T23:16:57.338Z,7.42
2017-11-19T23:19:25.601Z,7.40
2017-11-19T23:21:53.909Z,7.39
2017-11-19T23:24:22.186Z,7.33
2017-11-19T23:26:50.500Z,7.25
2017-11-19T23:29:18.766Z,7.14
2017-11-19T23:31:47.072Z,7.01
2017-11-19T23:34:15.342Z,7.16
2017-11-19T23:36:43.624Z,7.16
2017-11-19T23:39:11.877Z,7.16
2017-11-19T23:41:40.144Z,7.19
2017-11-19T23:44:08.397Z,6.95
2017-11-19T23:46:36.710Z,7.12
2017-11-19T23:49:04.970Z,7.17
2017-11-19T23:51:33.224Z,7.18
2017-11-19T23:54:01.510Z,6.93
2017-11-19T23:56:29.820Z,6.84
2017-11-19T23:58:58.207Z,6.73
